Time;durP1;ratioP1;P1;durP2;ratioP2;P2;SDS_P1;SDS_P2;PMS_P1;PMS_P2;Temp;Humidity;BMP_temperature;BMP_pressure;BME280_temperature;BME280_humidity;BME280_pressure;Samples;Min_cycle;Max_cycle;Signal;HPM_P1;HPM_P2
2021/03/16 00:00:00;;;;;;;16.70;4.73;;;5.20;99.90;;;;;;5051794;28;20253;-64
2021/03/16 00:02:26;;;;;;;11.27;3.00;;;5.30;99.90;;;;;;5045619;28;20493;-64
2021/03/16 00:04:51;;;;;;;14.17;3.70;;;5.30;99.90;;;;;;5032174;28;20179;-64
2021/03/16 00:07:18;;;;;;;20.80;4.20;;;5.40;99.90;;;;;;5035703;28;20202;-64
2021/03/16 00:09:44;;;;;;;17.13;5.27;;;5.40;99.90;;;;;;5051699;28;20190;-65
2021/03/16 00:12:10;;;;;;;16.73;4.40;;;5.40;99.90;;;;;;5048255;28;20405;-64
2021/03/16 00:14:36;;;;;;;14.13;3.93;;;5.40;99.90;;;;;;5031530;28;20230;-64
2021/03/16 00:17:02;;;;;;;9.60;3.10;;;5.40;99.90;;;;;;5049820;28;20301;-64
2021/03/16 00:19:28;;;;;;;16.60;4.73;;;5.40;99.90;;;;;;5051696;28;20688;-64
2021/03/16 00:21:53;;;;;;;6.07;3.33;;;5.40;99.90;;;;;;5034582;28;20313;-64
2021/03/16 00:24:19;;;;;;;12.47;3.57;;;5.50;99.90;;;;;;5031673;28;20226;-64
2021/03/16 00:26:45;;;;;;;14.40;5.17;;;5.50;99.90;;;;;;5046258;28;20552;-64
2021/03/16 00:29:10;;;;;;;25.87;5.07;;;5.50;99.90;;;;;;5051696;28;20198;-64
2021/03/16 00:31:36;;;;;;;14.10;5.30;;;5.50;99.90;;;;;;5037964;28;20604;-64
2021/03/16 00:34:01;;;;;;;13.10;3.93;;;5.50;99.90;;;;;;5031480;28;20239;-64
2021/03/16 00:36:27;;;;;;;16.83;4.00;;;5.50;99.90;;;;;;5042538;28;20209;-64
2021/03/16 00:38:53;;;;;;;17.83;4.17;;;5.60;99.90;;;;;;5051432;28;20676;-64
2021/03/16 00:41:18;;;;;;;8.50;2.93;;;5.60;99.90;;;;;;5041216;28;20266;-64
2021/03/16 00:43:44;;;;;;;14.73;3.80;;;5.50;99.90;;;;;;5037108;28;20250;-64
2021/03/16 00:46:10;;;;;;;13.90;4.53;;;5.60;99.90;;;;;;5051364;28;20182;-64
2021/03/16 00:48:35;;;;;;;23.80;4.40;;;5.50;99.90;;;;;;5047238;28;20219;-64
2021/03/16 00:51:01;;;;;;;11.97;3.40;;;5.50;99.90;;;;;;5031330;28;20217;-64
2021/03/16 00:53:27;;;;;;;9.03;3.13;;;5.60;99.90;;;;;;5033045;28;20449;-64
2021/03/16 00:55:52;;;;;;;19.23;4.40;;;5.60;99.90;;;;;;5051366;28;20174;-64
2021/03/16 00:58:27;;;;;;;11.43;3.60;;;5.60;99.90;;;;;;5050752;28;20226;-64
2021/03/16 01:00:54;;;;;;;14.10;3.57;;;5.60;99.90;;;;;;5011497;28;20213;-64
2021/03/16 01:03:20;;;;;;;6.97;3.33;;;5.60;99.90;;;;;;5030718;28;20205;-64
2021/03/16 01:05:47;;;;;;;10.70;3.10;;;5.60;99.90;;;;;;5051290;28;20178;-64
2021/03/16 01:08:12;;;;;;;18.50;3.87;;;5.60;99.90;;;;;;5042310;28;20733;-64
2021/03/16 01:10:38;;;;;;;12.93;2.90;;;5.60;99.90;;;;;;5031237;28;20278;-65
2021/03/16 01:13:04;;;;;;;8.10;3.40;;;5.60;99.90;;;;;;5037878;28;20191;-65
2021/03/16 01:15:29;;;;;;;16.50;3.87;;;5.60;99.90;;;;;;5045303;28;20535;-65
2021/03/16 01:17:55;;;;;;;17.80;3.27;;;5.70;99.90;;;;;;5043818;28;20213;-65
2021/03/16 01:20:23;;;;;;;22.47;3.73;;;5.60;99.90;;;;;;5047698;28;20207;-65
2021/03/16 01:22:49;;;;;;;13.23;3.57;;;5.60;99.90;;;;;;5032818;28;20234;-66
2021/03/16 01:25:16;;;;;;;7.87;3.37;;;5.60;99.90;;;;;;5034092;28;20530;-64
2021/03/16 01:27:41;;;;;;;9.93;4.17;;;5.60;99.90;;;;;;5054630;28;20690;-64
2021/03/16 01:30:08;;;;;;;13.17;3.07;;;5.50;99.90;;;;;;5053344;28;20175;-64
2021/03/16 01:32:35;;;;;;;12.03;2.70;;;5.50;99.90;;;;;;5033615;28;20279;-64
2021/03/16 01:35:02;;;;;;;8.27;2.70;;;5.50;99.90;;;;;;5034655;28;20207;-64
2021/03/16 01:37:29;;;;;;;15.10;4.60;;;5.50;99.90;;;;;;5053759;28;20233;-64
2021/03/16 01:39:54;;;;;;;11.07;2.83;;;5.50;99.90;;;;;;5054527;28;20198;-64
2021/03/16 01:42:20;;;;;;;14.37;3.63;;;5.50;99.90;;;;;;5036147;28;20221;-64
2021/03/16 01:44:46;;;;;;;12.77;3.57;;;5.60;99.90;;;;;;5047938;28;20178;-64
2021/03/16 01:47:14;;;;;;;21.47;3.97;;;5.60;99.90;;;;;;5054233;28;20278;-64
2021/03/16 01:49:41;;;;;;;21.93;4.07;;;5.60;99.90;;;;;;5042289;28;20716;-64
2021/03/16 01:52:06;;;;;;;13.67;4.00;;;5.50;99.90;;;;;;5034264;28;20176;-64
2021/03/16 01:54:32;;;;;;;7.37;4.13;;;5.60;99.90;;;;;;5041084;28;20206;-64
2021/03/16 01:57:03;;;;;;;15.53;2.93;;;5.60;99.90;;;;;;5054404;28;20167;-64
2021/03/16 01:59:29;;;;;;;16.90;4.40;;;5.60;99.90;;;;;;5044553;28;20187;-64
2021/03/16 02:01:55;;;;;;;7.17;3.40;;;5.60;99.90;;;;;;5034241;28;20671;-64
2021/03/16 02:04:21;;;;;;;11.20;4.07;;;5.60;99.90;;;;;;5042153;28;20190;-64
2021/03/16 02:07:16;;;;;;;17.37;3.80;;;5.60;99.90;;;;;;5054612;28;20206;-64
2021/03/16 02:09:58;;;;;;;8.87;3.17;;;5.60;99.90;;;;;;5043982;28;20176;-64
2021/03/16 02:12:39;;;;;;;13.73;3.63;;;5.60;99.90;;;;;;5041725;28;20190;-64
2021/03/16 02:15:38;;;;;;;8.87;2.40;;;5.60;99.90;;;;;;5039661;28;20215;-64
2021/03/16 02:18:10;;;;;;;9.87;2.87;;;5.60;99.90;;;;;;5011775;28;20291;-64
2021/03/16 02:20:41;;;;;;;9.07;3.60;;;5.60;99.90;;;;;;5013933;28;20180;-64
2021/03/16 02:23:09;;;;;;;15.37;3.70;;;5.60;99.90;;;;;;5039993;28;20537;-64
2021/03/16 02:26:12;;;;;;;7.43;2.87;;;5.60;99.90;;;;;;5054095;28;20663;-64
2021/03/16 02:29:15;;;;;;;25.93;3.53;;;5.60;99.90;;;;;;5036458;28;20257;-64
2021/03/16 02:31:50;;;;;;;11.17;3.00;;;5.50;99.90;;;;;;5033732;28;20182;-64
2021/03/16 02:34:17;;;;;;;10.83;3.53;;;5.50;99.90;;;;;;5053542;28;20637;-64
2021/03/16 02:36:44;;;;;;;9.57;2.73;;;5.50;99.90;;;;;;5052933;28;20199;-65
2021/03/16 02:39:11;;;;;;;9.13;3.03;;;5.40;99.90;;;;;;5012419;28;20286;-65
2021/03/16 02:41:38;;;;;;;9.83;3.20;;;5.40;99.90;;;;;;5045711;28;20210;-65
2021/03/16 02:44:05;;;;;;;14.37;4.53;;;5.40;99.90;;;;;;5053341;28;20187;-65
2021/03/16 02:46:32;;;;;;;15.53;3.00;;;5.40;99.90;;;;;;5038427;28;20590;-65
2021/03/16 02:48:58;;;;;;;8.10;2.60;;;5.40;99.90;;;;;;5056849;22;20238;-62
2021/03/16 02:51:24;;;;;;;7.10;3.03;;;5.40;99.90;;;;;;5032186;28;20172;-63
2021/03/16 02:53:52;;;;;;;8.70;2.40;;;5.40;99.90;;;;;;5033020;28;20692;-63
2021/03/16 02:56:19;;;;;;;12.97;3.53;;;5.40;99.90;;;;;;5032921;28;20644;-63
2021/03/16 02:58:47;;;;;;;10.63;3.80;;;5.40;99.90;;;;;;5033024;28;20179;-64
2021/03/16 03:01:15;;;;;;;7.47;2.53;;;5.40;99.90;;;;;;5032476;28;20172;-63
2021/03/16 03:03:41;;;;;;;6.50;2.60;;;5.40;99.90;;;;;;5033168;28;20176;-63
2021/03/16 03:06:09;;;;;;;10.83;3.57;;;5.40;99.90;;;;;;5032806;28;20190;-64
2021/03/16 03:08:35;;;;;;;20.30;5.07;;;5.30;99.90;;;;;;5032588;28;20258;-64
2021/03/16 03:11:00;;;;;;;15.63;3.27;;;5.40;99.90;;;;;;5032615;28;20180;-64
2021/03/16 03:13:26;;;;;;;11.20;3.10;;;5.40;99.90;;;;;;5032644;28;20253;-63
2021/03/16 03:15:53;;;;;;;13.63;3.50;;;5.40;99.90;;;;;;5032918;28;20179;-64
2021/03/16 03:18:19;;;;;;;7.43;3.07;;;5.50;99.90;;;;;;5032465;28;20191;-64
2021/03/16 03:20:45;;;;;;;14.57;3.23;;;5.50;99.90;;;;;;5032352;28;20171;-63
2021/03/16 03:23:19;;;;;;;10.10;3.57;;;5.50;99.90;;;;;;5032490;28;20629;-64
2021/03/16 03:25:56;;;;;;;11.10;3.40;;;5.50;99.90;;;;;;5032682;28;20312;-63
2021/03/16 03:28:25;;;;;;;10.40;2.80;;;5.50;99.90;;;;;;5032276;28;20200;-65
2021/03/16 03:30:51;;;;;;;8.27;3.20;;;5.40;99.90;;;;;;5031729;28;20586;-64
2021/03/16 03:33:19;;;;;;;15.90;4.10;;;5.40;99.90;;;;;;5032230;28;20195;-64
2021/03/16 03:35:45;;;;;;;12.97;3.87;;;5.50;99.90;;;;;;5012669;28;20585;-63
2021/03/16 03:38:12;;;;;;;12.37;3.73;;;5.50;99.90;;;;;;5028700;28;20218;-64
2021/03/16 03:40:39;;;;;;;11.00;3.90;;;5.50;99.90;;;;;;5032016;28;20171;-63
2021/03/16 03:43:08;;;;;;;15.73;3.70;;;5.50;99.90;;;;;;5032114;28;20718;-63
2021/03/16 03:45:35;;;;;;;15.37;3.93;;;5.60;99.90;;;;;;5032387;28;20170;-64
2021/03/16 03:48:02;;;;;;;8.23;3.40;;;5.60;99.90;;;;;;5032117;28;20676;-64
2021/03/16 03:50:29;;;;;;;12.73;3.63;;;5.60;99.90;;;;;;5031407;28;20172;-64
2021/03/16 03:52:57;;;;;;;18.90;3.10;;;5.60;99.90;;;;;;5031875;28;20184;-65
2021/03/16 03:55:24;;;;;;;6.20;3.47;;;5.60;99.90;;;;;;5032107;28;20183;-63
2021/03/16 03:57:51;;;;;;;12.67;3.10;;;5.60;99.90;;;;;;5032090;28;20282;-64
2021/03/16 04:00:18;;;;;;;10.57;3.13;;;5.60;99.90;;;;;;5031720;28;20167;-65
2021/03/16 04:02:44;;;;;;;9.40;3.23;;;5.50;99.90;;;;;;5031715;28;20313;-65
2021/03/16 04:05:13;;;;;;;15.60;3.27;;;5.50;99.90;;;;;;5031693;28;20183;-63
2021/03/16 04:07:40;;;;;;;6.33;2.40;;;5.50;99.90;;;;;;5031897;28;20197;-64
2021/03/16 04:10:09;;;;;;;15.10;3.67;;;5.50;99.90;;;;;;5031149;28;20255;-64
2021/03/16 04:12:36;;;;;;;14.70;3.17;;;5.50;99.90;;;;;;5031886;28;20893;-64
2021/03/16 04:15:06;;;;;;;13.63;4.40;;;5.50;99.90;;;;;;5031303;28;20198;-63
2021/03/16 04:17:32;;;;;;;8.50;2.57;;;5.50;99.90;;;;;;5031786;28;20187;-64
2021/03/16 04:19:58;;;;;;;13.43;3.40;;;5.50;99.90;;;;;;5031290;28;20242;-65
2021/03/16 04:22:25;;;;;;;13.07;3.33;;;5.50;99.90;;;;;;5031557;28;20175;-64
2021/03/16 04:24:53;;;;;;;10.87;2.67;;;5.50;99.90;;;;;;5031320;28;20637;-64
2021/03/16 04:27:19;;;;;;;12.23;3.30;;;5.50;99.90;;;;;;5031491;28;20188;-64
2021/03/16 04:29:44;;;;;;;12.33;2.93;;;5.50;99.90;;;;;;5031420;28;20388;-64
2021/03/16 04:32:10;;;;;;;12.33;3.33;;;5.50;99.90;;;;;;5030007;28;20186;-64
2021/03/16 04:34:36;;;;;;;11.83;2.70;;;5.50;99.90;;;;;;5030966;28;20646;-65
2021/03/16 04:37:01;;;;;;;12.57;2.90;;;5.50;99.90;;;;;;5030602;28;20271;-65
2021/03/16 04:39:27;;;;;;;11.60;2.83;;;5.50;99.90;;;;;;5031662;28;20191;-65
2021/03/16 04:41:53;;;;;;;5.23;2.80;;;5.50;99.90;;;;;;5031587;28;20548;-65
2021/03/16 04:44:18;;;;;;;17.63;3.60;;;5.50;99.90;;;;;;5031491;28;20228;-65
2021/03/16 04:46:44;;;;;;;7.10;2.57;;;5.50;99.90;;;;;;5031371;28;20652;-64
2021/03/16 04:49:10;;;;;;;9.13;2.83;;;5.50;99.90;;;;;;5031294;28;20210;-65
2021/03/16 04:51:35;;;;;;;19.33;3.33;;;5.50;99.90;;;;;;5030700;28;20190;-64
2021/03/16 04:54:01;;;;;;;14.80;3.07;;;5.50;99.90;;;;;;5031662;28;20203;-66
2021/03/16 04:56:26;;;;;;;9.73;3.03;;;5.50;99.90;;;;;;5031216;28;20211;-66
2021/03/16 04:58:52;;;;;;;14.60;3.67;;;5.50;99.90;;;;;;5031157;28;20187;-64
2021/03/16 05:01:18;;;;;;;7.70;2.60;;;5.50;99.90;;;;;;5032255;28;20183;-65
2021/03/16 05:03:43;;;;;;;11.57;3.50;;;5.50;99.90;;;;;;5035582;28;20175;-65
2021/03/16 05:06:09;;;;;;;12.00;3.40;;;5.50;99.90;;;;;;5035141;28;20176;-66
2021/03/16 05:08:34;;;;;;;12.90;4.20;;;5.50;99.90;;;;;;5035631;28;20195;-64
2021/03/16 05:11:00;;;;;;;12.33;3.27;;;5.50;99.90;;;;;;5034304;28;20617;-65
2021/03/16 05:13:26;;;;;;;14.47;3.50;;;5.50;99.90;;;;;;5035285;28;20203;-65
2021/03/16 05:15:51;;;;;;;12.60;3.93;;;5.50;99.90;;;;;;5035159;28;20522;-66
2021/03/16 05:18:17;;;;;;;16.37;3.70;;;5.50;99.90;;;;;;5034883;28;20188;-65
2021/03/16 05:20:43;;;;;;;9.17;3.80;;;5.50;99.90;;;;;;5034469;28;20187;-64
2021/03/16 05:23:09;;;;;;;7.77;3.00;;;5.50;99.90;;;;;;5035026;28;20246;-65
2021/03/16 05:25:35;;;;;;;22.13;6.27;;;5.50;99.90;;;;;;5035038;28;20266;-64
2021/03/16 05:28:00;;;;;;;13.23;3.50;;;5.50;99.90;;;;;;5034868;28;20215;-65
2021/03/16 05:30:26;;;;;;;9.60;3.00;;;5.50;99.90;;;;;;5034182;28;20172;-65
2021/03/16 05:32:56;;;;;;;12.83;3.57;;;5.50;99.90;;;;;;5034379;28;20534;-65
2021/03/16 05:35:22;;;;;;;9.40;3.53;;;5.50;99.90;;;;;;5034227;28;20213;-65
2021/03/16 05:37:48;;;;;;;19.20;3.70;;;5.50;99.90;;;;;;5034787;28;20715;-66
2021/03/16 05:40:14;;;;;;;16.10;3.60;;;5.50;99.90;;;;;;5034179;28;20172;-64
2021/03/16 05:42:40;;;;;;;10.83;2.53;;;5.40;99.90;;;;;;5034542;28;20228;-62
2021/03/16 05:45:06;;;;;;;12.03;3.33;;;5.40;99.90;;;;;;5033241;28;20666;-64
2021/03/16 05:47:32;;;;;;;8.13;3.07;;;5.50;99.90;;;;;;5034517;28;20285;-65
2021/03/16 05:49:59;;;;;;;12.57;2.87;;;5.50;99.90;;;;;;5034165;28;20329;-65
2021/03/16 05:52:25;;;;;;;13.43;4.07;;;5.50;99.90;;;;;;5034070;28;20176;-66
2021/03/16 05:54:54;;;;;;;14.43;3.10;;;5.50;99.90;;;;;;5034146;28;20203;-66
2021/03/16 05:57:20;;;;;;;8.70;3.30;;;5.50;99.90;;;;;;5034454;28;20176;-66
2021/03/16 05:59:47;;;;;;;9.57;2.90;;;5.50;99.90;;;;;;5033993;28;20322;-65
2021/03/16 06:02:15;;;;;;;7.07;3.20;;;5.60;99.90;;;;;;5034259;28;20250;-66
2021/03/16 06:04:47;;;;;;;20.77;3.90;;;5.50;99.90;;;;;;5034593;28;20594;-66
2021/03/16 06:07:13;;;;;;;10.87;2.90;;;5.50;99.90;;;;;;5034688;28;20637;-66
2021/03/16 06:09:39;;;;;;;10.43;3.13;;;5.50;99.90;;;;;;5034533;28;20175;-66
2021/03/16 06:12:06;;;;;;;7.37;2.77;;;5.50;99.90;;;;;;5032926;28;20185;-66
2021/03/16 06:14:32;;;;;;;8.60;3.90;;;5.50;99.90;;;;;;5034206;28;20213;-64
2021/03/16 06:16:59;;;;;;;14.60;3.73;;;5.50;99.90;;;;;;5034321;28;20191;-65
2021/03/16 06:19:31;;;;;;;13.23;3.50;;;5.50;99.90;;;;;;5034384;28;20218;-66
2021/03/16 06:22:05;;;;;;;12.73;3.03;;;5.60;99.90;;;;;;5033431;28;20176;-65
2021/03/16 06:24:31;;;;;;;19.67;3.10;;;5.60;99.90;;;;;;5034052;28;20187;-65
2021/03/16 06:26:57;;;;;;;12.87;2.87;;;5.70;99.90;;;;;;5033471;28;20475;-65
2021/03/16 06:29:23;;;;;;;6.63;2.73;;;5.70;99.90;;;;;;5033802;28;20286;-66
2021/03/16 06:31:49;;;;;;;9.30;2.80;;;5.70;99.90;;;;;;5032677;28;20274;-66
2021/03/16 06:34:25;;;;;;;16.50;4.30;;;5.80;99.90;;;;;;5033740;28;20213;-66
2021/03/16 06:36:59;;;;;;;9.17;3.17;;;5.80;99.90;;;;;;5033201;28;20179;-65
2021/03/16 06:39:26;;;;;;;20.97;4.37;;;5.80;99.90;;;;;;5031604;28;20299;-63
2021/03/16 06:41:52;;;;;;;7.60;2.83;;;5.80;99.90;;;;;;5032933;28;20247;-65
2021/03/16 06:44:19;;;;;;;9.07;3.73;;;5.80;99.90;;;;;;5033171;28;20649;-64
2021/03/16 06:46:52;;;;;;;8.57;2.67;;;5.80;99.90;;;;;;5033268;28;20186;-64
2021/03/16 06:49:19;;;;;;;12.60;3.00;;;5.80;99.90;;;;;;5032588;28;20612;-66
2021/03/16 06:51:50;;;;;;;13.47;3.80;;;5.80;99.90;;;;;;5033255;28;20258;-63
2021/03/16 06:54:18;;;;;;;12.23;4.40;;;5.90;99.90;;;;;;5031714;28;20203;-64
2021/03/16 06:56:55;;;;;;;9.20;3.40;;;5.90;99.90;;;;;;5032971;28;20571;-64
2021/03/16 06:59:26;;;;;;;7.83;3.43;;;5.90;99.90;;;;;;5032949;28;20194;-65
2021/03/16 07:01:52;;;;;;;8.90;3.00;;;5.90;99.90;;;;;;5033042;28;20567;-64
2021/03/16 07:04:20;;;;;;;7.87;2.93;;;5.80;99.90;;;;;;5032822;28;20589;-64
2021/03/16 07:06:47;;;;;;;6.60;2.80;;;5.90;99.90;;;;;;5032876;28;20171;-64
2021/03/16 07:09:14;;;;;;;8.47;2.30;;;5.90;99.90;;;;;;5032448;28;20191;-65
2021/03/16 07:11:45;;;;;;;15.27;2.90;;;6.00;99.90;;;;;;5032180;28;20589;-63
2021/03/16 07:14:13;;;;;;;13.20;3.30;;;6.10;99.90;;;;;;5032329;28;20210;-68
2021/03/16 07:16:39;;;;;;;14.20;3.90;;;6.20;99.90;;;;;;5032808;28;20171;-65
2021/03/16 07:19:05;;;;;;;9.90;3.17;;;6.20;99.90;;;;;;5032409;28;20560;-65
2021/03/16 07:21:37;;;;;;;7.57;2.80;;;6.30;99.90;;;;;;5032355;28;20178;-65
2021/03/16 07:24:07;;;;;;;12.73;3.27;;;6.40;99.90;;;;;;5031424;28;20549;-65
2021/03/16 07:26:33;;;;;;;25.30;3.77;;;6.50;99.90;;;;;;5032539;28;20176;-65
2021/03/16 07:29:00;;;;;;;19.10;3.37;;;6.60;99.90;;;;;;5032008;28;20187;-65
2021/03/16 07:31:27;;;;;;;17.57;3.97;;;6.80;99.90;;;;;;5032030;28;20641;-65
2021/03/16 07:33:53;;;;;;;10.33;3.50;;;6.90;99.90;;;;;;5032203;28;20238;-65
2021/03/16 07:36:18;;;;;;;9.40;3.50;;;6.90;99.90;;;;;;5032068;28;20211;-65
2021/03/16 07:38:46;;;;;;;9.67;3.80;;;7.00;99.90;;;;;;5031961;28;20199;-65
2021/03/16 07:41:12;;;;;;;15.23;4.00;;;7.00;99.90;;;;;;5031335;28;20174;-65
2021/03/16 07:43:40;;;;;;;17.00;4.73;;;7.10;99.90;;;;;;5032497;28;20547;-65
2021/03/16 07:46:13;;;;;;;15.00;4.13;;;7.50;99.90;;;;;;5031762;28;20167;-65
2021/03/16 07:48:57;;;;;;;13.83;5.60;;;7.80;99.90;;;;;;5032054;28;20203;-65
2021/03/16 07:51:32;;;;;;;15.20;4.33;;;7.80;99.90;;;;;;5030982;28;20179;-64
2021/03/16 07:54:00;;;;;;;9.83;3.70;;;7.60;99.90;;;;;;5032550;28;20234;-64
2021/03/16 07:56:28;;;;;;;16.83;5.20;;;7.40;99.90;;;;;;5031808;28;20175;-65
2021/03/16 07:58:54;;;;;;;9.73;4.93;;;7.30;99.90;;;;;;5031778;28;20240;-65
2021/03/16 08:01:20;;;;;;;10.93;4.70;;;7.40;99.90;;;;;;5031319;28;20550;-65
2021/03/16 08:03:46;;;;;;;15.03;5.33;;;7.60;99.90;;;;;;5032008;28;20217;-64
2021/03/16 08:06:25;;;;;;;15.70;4.83;;;7.60;99.90;;;;;;5031523;28;20184;-65
2021/03/16 08:08:52;;;;;;;12.60;4.90;;;7.60;99.90;;;;;;5031624;28;20201;-65
2021/03/16 08:11:18;;;;;;;8.80;4.30;;;7.70;99.90;;;;;;5030881;28;20183;-64
2021/03/16 08:13:55;;;;;;;9.43;4.50;;;7.80;99.90;;;;;;5031805;28;20294;-65
2021/03/16 08:16:34;;;;;;;9.93;3.93;;;7.90;99.90;;;;;;5031244;28;20179;-66
2021/03/16 08:19:18;;;;;;;11.23;4.30;;;8.10;99.90;;;;;;5031417;28;20191;-65
2021/03/16 08:21:45;;;;;;;9.50;3.63;;;8.30;99.90;;;;;;5031352;28;20167;-64
2021/03/16 08:24:15;;;;;;;10.10;3.90;;;8.40;99.90;;;;;;5030953;28;20187;-66
2021/03/16 08:26:52;;;;;;;6.60;3.20;;;8.80;99.90;;;;;;5031010;28;20182;-65
2021/03/16 08:29:28;;;;;;;11.63;3.50;;;9.00;99.90;;;;;;5031291;28;20199;-65
2021/03/16 08:31:56;;;;;;;8.70;3.03;;;9.00;99.90;;;;;;5030461;28;20199;-65
2021/03/16 08:34:24;;;;;;;9.07;2.87;;;8.90;99.90;;;;;;5031285;28;20293;-66
2021/03/16 08:36:50;;;;;;;10.27;2.83;;;8.60;99.90;;;;;;5031043;28;20176;-66
2021/03/16 08:39:21;;;;;;;9.10;3.10;;;8.40;99.90;;;;;;5031128;28;20210;-66
2021/03/16 08:41:53;;;;;;;8.17;2.90;;;8.50;99.90;;;;;;5030925;28;20178;-66
2021/03/16 08:44:19;;;;;;;11.73;3.10;;;8.60;99.90;;;;;;5031221;28;20202;-66
2021/03/16 08:46:45;;;;;;;5.27;2.40;;;8.80;99.90;;;;;;5031376;28;20202;-66
2021/03/16 08:49:16;;;;;;;8.67;2.80;;;9.00;99.90;;;;;;5031413;28;20245;-64
2021/03/16 08:51:41;;;;;;;11.43;3.67;;;9.00;99.90;;;;;;5030890;28;20183;-64
2021/03/16 08:54:07;;;;;;;12.20;3.70;;;9.00;99.90;;;;;;5030999;28;20202;-64
2021/03/16 08:56:33;;;;;;;8.37;3.03;;;8.90;99.90;;;;;;5030778;28;20171;-63
2021/03/16 08:59:05;;;;;;;11.87;3.07;;;9.00;99.90;;;;;;5031004;28;20249;-65
2021/03/16 09:01:33;;;;;;;10.23;3.60;;;9.00;99.90;;;;;;5030733;28;20580;-64
2021/03/16 09:04:12;;;;;;;10.90;3.60;;;9.10;99.90;;;;;;5031283;28;20176;-66
2021/03/16 09:06:38;;;;;;;7.93;2.97;;;9.00;99.90;;;;;;5031084;28;20201;-64
2021/03/16 09:09:05;;;;;;;10.60;3.30;;;9.00;99.90;;;;;;5031009;28;20191;-64
2021/03/16 09:11:37;;;;;;;11.07;3.17;;;8.80;99.90;;;;;;5030202;28;20175;-63
2021/03/16 09:14:15;;;;;;;10.90;3.70;;;8.40;99.90;;;;;;5030914;28;20249;-65
2021/03/16 09:16:49;;;;;;;8.60;3.50;;;8.00;99.90;;;;;;5030887;28;20540;-63
2021/03/16 09:19:21;;;;;;;9.30;3.77;;;7.60;99.90;;;;;;5030685;28;20191;-63
2021/03/16 09:21:49;;;;;;;11.87;3.50;;;7.60;99.90;;;;;;5030518;28;20179;-63
2021/03/16 09:24:19;;;;;;;13.40;3.00;;;7.80;99.90;;;;;;5030786;28;20175;-65
2021/03/16 09:26:51;;;;;;;11.43;3.47;;;8.40;99.90;;;;;;5030717;28;20695;-64
2021/03/16 09:29:17;;;;;;;7.33;3.23;;;8.90;99.90;;;;;;5030685;28;20241;-64
2021/03/16 09:31:43;;;;;;;7.77;2.80;;;9.20;99.90;;;;;;5030423;28;20180;-64
2021/03/16 09:34:11;;;;;;;10.30;3.67;;;9.40;99.90;;;;;;5030452;28;20211;-64
2021/03/16 09:36:36;;;;;;;13.50;3.80;;;9.30;99.90;;;;;;5030890;28;20172;-64
2021/03/16 09:39:02;;;;;;;9.43;3.03;;;9.20;99.90;;;;;;5030421;28;20279;-65
2021/03/16 09:41:28;;;;;;;7.50;3.07;;;9.20;99.90;;;;;;5030451;28;20168;-65
2021/03/16 09:43:53;;;;;;;9.33;3.47;;;9.10;99.90;;;;;;5030579;28;20179;-66
2021/03/16 09:46:19;;;;;;;9.87;3.73;;;9.00;99.90;;;;;;5030835;28;20180;-64
2021/03/16 09:48:50;;;;;;;15.03;4.33;;;9.00;99.90;;;;;;5033928;28;20222;-64
2021/03/16 09:51:21;;;;;;;8.23;3.67;;;8.90;99.90;;;;;;5033840;28;20201;-65
2021/03/16 09:53:57;;;;;;;13.07;3.97;;;8.80;99.90;;;;;;5033998;28;20223;-64
2021/03/16 09:56:32;;;;;;;9.13;3.47;;;8.70;99.90;;;;;;5034218;28;20171;-65
2021/03/16 09:59:00;;;;;;;7.47;3.10;;;8.70;99.90;;;;;;5033832;28;20561;-65
2021/03/16 10:01:26;;;;;;;5.90;2.57;;;9.00;99.90;;;;;;5033760;28;20670;-63
2021/03/16 10:03:59;;;;;;;7.40;3.70;;;9.20;99.90;;;;;;5034149;28;20172;-64
2021/03/16 10:06:40;;;;;;;9.37;3.20;;;9.30;99.90;;;;;;5033779;28;20191;-64
2021/03/16 10:09:15;;;;;;;9.10;4.03;;;9.30;99.90;;;;;;5033713;28;20191;-64
2021/03/16 10:11:41;;;;;;;12.53;3.43;;;9.40;99.90;;;;;;5033358;28;20168;-65
2021/03/16 10:14:07;;;;;;;9.70;2.70;;;9.40;99.90;;;;;;5033885;28;20677;-65
2021/03/16 10:16:33;;;;;;;9.53;2.90;;;9.30;99.90;;;;;;5033698;28;20175;-65
2021/03/16 10:18:58;;;;;;;9.93;3.17;;;9.30;99.90;;;;;;5033772;28;20187;-64
2021/03/16 10:21:28;;;;;;;10.17;2.80;;;9.40;99.90;;;;;;5033087;28;20187;-64
2021/03/16 10:23:57;;;;;;;5.53;2.23;;;9.70;99.90;;;;;;5034067;28;20172;-64
2021/03/16 10:26:23;;;;;;;4.67;2.13;;;10.10;99.90;;;;;;5033538;28;20175;-65
2021/03/16 10:28:48;;;;;;;7.30;2.47;;;10.70;99.90;;;;;;5033615;28;20195;-65
2021/03/16 10:31:28;;;;;;;3.13;2.10;;;10.90;99.90;;;;;;5031009;28;20219;-65
2021/03/16 10:33:55;;;;;;;3.60;1.70;;;10.80;99.90;;;;;;5033497;28;20203;-64
2021/03/16 10:36:22;;;;;;;8.83;2.50;;;10.80;99.90;;;;;;5033110;28;20186;-65
2021/03/16 10:38:51;;;;;;;6.57;2.53;;;10.60;99.90;;;;;;5033554;28;20215;-64
2021/03/16 10:41:21;;;;;;;4.50;2.77;;;10.20;99.90;;;;;;5032511;28;20179;-64
2021/03/16 10:43:47;;;;;;;8.37;3.00;;;9.80;99.90;;;;;;5033414;28;20168;-64
2021/03/16 10:46:13;;;;;;;10.57;3.40;;;9.70;99.90;;;;;;5033003;28;20206;-64
2021/03/16 10:48:39;;;;;;;4.90;2.47;;;9.80;99.90;;;;;;5033283;28;20242;-63
2021/03/16 10:51:05;;;;;;;9.50;3.70;;;10.20;99.90;;;;;;5032972;28;20233;-63
2021/03/16 10:53:31;;;;;;;7.40;2.67;;;10.60;99.90;;;;;;5031923;28;20195;-64
2021/03/16 10:55:57;;;;;;;11.13;3.10;;;10.80;99.90;;;;;;5032871;28;20175;-64
2021/03/16 10:58:22;;;;;;;7.13;3.03;;;11.20;99.90;;;;;;5032547;28;20188;-64
2021/03/16 11:00:48;;;;;;;7.43;3.50;;;11.50;99.90;;;;;;5032936;28;20700;-64
2021/03/16 11:03:14;;;;;;;5.70;2.50;;;11.70;99.90;;;;;;5032418;28;20237;-64
2021/03/16 11:05:39;;;;;;;7.97;2.97;;;11.70;99.90;;;;;;5033085;28;20170;-64
2021/03/16 11:08:05;;;;;;;6.10;2.30;;;11.60;99.90;;;;;;5032629;28;20241;-63
2021/03/16 11:10:31;;;;;;;7.00;3.10;;;11.10;99.90;;;;;;5032718;28;20253;-63
2021/03/16 11:12:57;;;;;;;6.10;2.73;;;10.70;99.90;;;;;;5032285;28;20258;-64
2021/03/16 11:15:22;;;;;;;8.57;3.33;;;10.40;99.90;;;;;;5032711;28;20282;-63
2021/03/16 11:17:49;;;;;;;10.17;3.40;;;10.00;99.90;;;;;;5032549;28;20184;-64
2021/03/16 11:20:16;;;;;;;9.10;3.00;;;10.00;99.90;;;;;;5032185;28;20178;-65
2021/03/16 11:22:42;;;;;;;6.47;2.50;;;10.10;99.90;;;;;;5032841;28;20637;-64
2021/03/16 11:25:08;;;;;;;9.23;3.50;;;9.90;99.90;;;;;;5032191;28;20186;-63
2021/03/16 11:27:34;;;;;;;7.27;3.07;;;9.70;99.90;;;;;;5032570;28;20665;-63
2021/03/16 11:30:01;;;;;;;7.67;3.43;;;9.70;99.90;;;;;;5032136;28;20183;-63
2021/03/16 11:32:27;;;;;;;10.07;3.33;;;9.60;99.90;;;;;;5032084;28;20529;-64
2021/03/16 11:34:52;;;;;;;3.07;2.43;;;9.60;99.90;;;;;;5032157;28;20257;-63
2021/03/16 11:37:18;;;;;;;9.90;2.73;;;9.80;99.90;;;;;;5032138;28;20168;-63
2021/03/16 11:39:45;;;;;;;6.73;2.77;;;10.00;99.90;;;;;;5031988;28;20262;-66
2021/03/16 11:42:11;;;;;;;9.17;2.73;;;10.40;99.90;;;;;;5030869;28;20182;-63
2021/03/16 11:44:37;;;;;;;4.53;2.20;;;10.60;99.90;;;;;;5031871;28;20217;-64
2021/03/16 11:47:03;;;;;;;8.23;2.30;;;10.80;99.90;;;;;;5032109;28;20175;-64
2021/03/16 11:49:28;;;;;;;11.37;3.43;;;10.70;99.90;;;;;;5031721;28;20368;-63
2021/03/16 11:51:54;;;;;;;6.57;2.30;;;10.70;99.90;;;;;;5031507;28;20233;-64
2021/03/16 11:54:20;;;;;;;7.37;2.53;;;10.70;99.90;;;;;;5031734;28;20288;-64
2021/03/16 11:56:46;;;;;;;9.17;2.73;;;10.80;99.90;;;;;;5032231;28;20664;-63
2021/03/16 11:59:12;;;;;;;7.33;2.47;;;10.80;99.90;;;;;;5031268;28;20199;-63
2021/03/16 12:01:37;;;;;;;6.37;2.57;;;11.10;99.90;;;;;;5031466;28;20245;-64
2021/03/16 12:04:03;;;;;;;5.20;2.03;;;11.20;99.90;;;;;;5031532;28;20228;-63
2021/03/16 12:06:29;;;;;;;6.57;2.43;;;11.30;99.90;;;;;;5032067;28;20228;-64
2021/03/16 12:08:55;;;;;;;5.30;2.07;;;11.30;99.90;;;;;;5031528;28;20207;-63
2021/03/16 12:11:21;;;;;;;7.10;2.70;;;11.40;99.90;;;;;;5029802;28;20171;-64
2021/03/16 12:13:47;;;;;;;10.00;2.40;;;11.50;99.90;;;;;;5031400;28;20207;-63
2021/03/16 12:16:12;;;;;;;7.53;2.30;;;11.80;99.90;;;;;;5031643;28;20180;-63
2021/03/16 12:18:38;;;;;;;6.70;2.17;;;12.20;99.90;;;;;;5031469;28;20683;-65
2021/03/16 12:21:04;;;;;;;5.33;2.13;;;12.70;99.90;;;;;;5031137;28;20597;-63
2021/03/16 12:23:29;;;;;;;4.47;2.50;;;12.80;99.90;;;;;;5031223;28;20186;-64
2021/03/16 12:25:55;;;;;;;8.07;3.07;;;12.70;99.90;;;;;;5031669;28;20250;-64
2021/03/16 12:28:21;;;;;;;7.33;2.60;;;12.30;99.90;;;;;;5031151;28;20226;-64
2021/03/16 12:30:47;;;;;;;9.83;2.43;;;11.50;99.90;;;;;;5030398;28;20600;-65
2021/03/16 12:33:13;;;;;;;9.97;2.67;;;10.20;99.90;;;;;;5030519;28;20187;-63
2021/03/16 12:35:40;;;;;;;6.83;3.07;;;9.20;99.90;;;;;;5031728;28;20202;-64
2021/03/16 12:38:05;;;;;;;4.17;2.83;;;8.50;99.90;;;;;;5031328;28;20203;-65
2021/03/16 12:40:31;;;;;;;7.73;3.27;;;8.00;99.90;;;;;;5030170;28;20628;-64
2021/03/16 12:42:57;;;;;;;8.10;3.53;;;7.90;99.90;;;;;;5031420;28;20171;-66
2021/03/16 12:45:22;;;;;;;5.37;3.27;;;8.00;99.90;;;;;;5031273;28;20289;-64
2021/03/16 12:47:50;;;;;;;4.93;3.10;;;8.20;99.90;;;;;;5031105;28;20242;-66
2021/03/16 12:50:16;;;;;;;5.70;2.90;;;8.60;99.90;;;;;;5030857;28;20290;-66
2021/03/16 12:52:41;;;;;;;3.67;2.70;;;8.80;99.90;;;;;;5031584;28;20167;-64